createdAt,value
2018-11-28T00:02:18.823Z,3.83
2018-11-28T00:05:08.553Z,3.63
2018-11-28T00:07:38.249Z,3.77
2018-11-28T00:10:10.962Z,3.71
2018-11-28T00:12:41.419Z,3.70
2018-11-28T00:15:31.315Z,3.77
2018-11-28T00:18:02.116Z,3.63
2018-11-28T00:20:32.063Z,3.63
2018-11-28T00:23:21.451Z,3.56
2018-11-28T00:25:52.203Z,3.52
2018-11-28T00:28:22.573Z,3.57
2018-11-28T00:30:53.459Z,3.67
2018-11-28T00:33:23.423Z,3.72
2018-11-28T00:35:54.375Z,3.74
2018-11-28T00:38:23.997Z,3.78
2018-11-28T00:40:54.102Z,3.74
2018-11-28T00:43:25.057Z,3.72
2018-11-28T00:46:13.915Z,3.76
2018-11-28T00:49:03.091Z,3.75
2018-11-28T00:51:33.902Z,3.59
2018-11-28T00:54:03.532Z,3.64
2018-11-28T00:56:33.399Z,3.73
2018-11-28T00:59:03.627Z,3.73
2018-11-28T01:01:33.248Z,3.71
2018-11-28T01:04:03.579Z,3.67
2018-11-28T01:06:33.268Z,3.60
2018-11-28T01:11:52.843Z,3.65
2018-11-28T01:14:22.987Z,3.61
2018-11-28T01:16:52.629Z,3.59
2018-11-28T01:19:22.429Z,3.65
2018-11-28T01:21:52.645Z,3.59
2018-11-28T01:24:22.862Z,3.43
2018-11-28T01:26:52.894Z,3.49
2018-11-28T01:29:22.786Z,3.53
2018-11-28T01:32:12.730Z,3.53
2018-11-28T01:34:42.991Z,3.52
2018-11-28T01:37:12.946Z,3.51
2018-11-28T01:39:43.244Z,3.50
2018-11-28T01:42:13.505Z,3.59
2018-11-28T01:44:44.148Z,3.74
2018-11-28T01:47:14.627Z,3.62
2018-11-28T01:49:45.068Z,3.52
2018-11-28T01:52:14.959Z,3.49
2018-11-28T01:54:45.296Z,3.44
2018-11-28T01:57:15.294Z,3.41
2018-11-28T01:59:45.152Z,3.39
2018-11-28T02:02:33.679Z,3.37
2018-11-28T02:05:04.240Z,3.37
2018-11-28T02:07:34.650Z,3.33
2018-11-28T02:10:04.265Z,3.32
2018-11-28T02:12:34.458Z,3.25
2018-11-28T02:15:04.379Z,3.22
2018-11-28T02:17:53.475Z,3.17
2018-11-28T02:20:24.067Z,3.13
2018-11-28T02:22:54.329Z,3.07
2018-11-28T02:25:24.614Z,3.10
2018-11-28T02:28:13.928Z,3.08
2018-11-28T02:30:44.558Z,3.02
2018-11-28T02:33:14.547Z,2.96
2018-11-28T02:35:44.448Z,2.94
2018-11-28T02:38:14.363Z,3.09
2018-11-28T02:40:44.606Z,3.16
2018-11-28T02:43:14.600Z,3.13
2018-11-28T02:46:04.484Z,3.11
2018-11-28T02:48:34.595Z,3.14
2018-11-28T02:51:23.433Z,3.14
2018-11-28T02:53:53.743Z,3.20
2018-11-28T02:56:24.109Z,3.32
2018-11-28T02:58:54.458Z,3.41
2018-11-28T03:01:24.343Z,3.30
2018-11-28T03:03:54.253Z,3.31
2018-11-28T03:06:24.243Z,3.35
2018-11-28T03:08:54.289Z,3.35
2018-11-28T03:11:44.057Z,3.36
2018-11-28T03:14:14.013Z,3.42
2018-11-28T03:16:44.014Z,3.46
2018-11-28T03:19:13.627Z,3.52
2018-11-28T03:21:43.673Z,3.59
2018-11-28T03:24:13.660Z,3.70
2018-11-28T03:26:44.439Z,3.67
2018-11-28T03:29:34.120Z,3.60
2018-11-28T03:32:03.748Z,3.61
2018-11-28T03:34:34.300Z,3.56
2018-11-28T03:39:54.495Z,3.56
2018-11-28T03:42:24.739Z,3.53
2018-11-28T03:44:54.416Z,3.52
2018-11-28T03:47:24.662Z,3.61
2018-11-28T03:49:55.231Z,3.59
2018-11-28T03:52:25.502Z,3.68
2018-11-28T03:54:56.048Z,3.72
2018-11-28T03:57:26.596Z,3.75
2018-11-28T03:59:57.065Z,3.70
2018-11-28T04:02:27.328Z,3.57
2018-11-28T04:04:57.750Z,3.49
2018-11-28T04:07:27.597Z,3.37
2018-11-28T04:09:57.581Z,3.50
2018-11-28T04:12:27.917Z,3.49
2018-11-28T04:15:17.454Z,3.18
2018-11-28T04:17:48.013Z,3.03
2018-11-28T04:20:37.382Z,3.10
2018-11-28T04:23:07.585Z,3.00
2018-11-28T04:25:38.454Z,2.91
2018-11-28T04:28:08.708Z,2.78
2018-11-28T04:30:38.709Z,2.73
2018-11-28T04:33:09.025Z,2.72
2018-11-28T04:35:39.293Z,2.71
2018-11-28T04:38:09.134Z,2.66
2018-11-28T04:40:39.069Z,2.65
2018-11-28T04:43:09.260Z,2.70
2018-11-28T04:45:40.244Z,2.75
2018-11-28T04:48:29.682Z,2.74
2018-11-28T04:50:59.607Z,2.68
2018-11-28T04:53:29.885Z,2.59
2018-11-28T04:55:59.784Z,2.70
2018-11-28T04:58:30.422Z,2.79
2018-11-28T05:01:00.289Z,2.73
2018-11-28T05:03:30.173Z,2.69
2018-11-28T05:06:00.343Z,2.64
2018-11-28T05:08:29.963Z,2.64
2018-11-28T05:11:00.272Z,2.65
2018-11-28T05:13:30.602Z,2.75
2018-11-28T05:16:01.484Z,2.76
2018-11-28T05:18:31.159Z,2.68
2018-11-28T05:21:19.963Z,2.63
2018-11-28T05:24:09.607Z,2.56
2018-11-28T05:29:15.237Z,2.48
2018-11-28T05:31:45.133Z,2.44
2018-11-28T05:34:15.588Z,2.38
2018-11-28T05:37:05.120Z,2.35
2018-11-28T05:39:35.019Z,2.34
2018-11-28T05:42:05.331Z,2.35
2018-11-28T05:44:35.279Z,2.33
2018-11-28T05:47:05.172Z,2.33
2018-11-28T05:49:35.388Z,2.31
2018-11-28T05:52:05.574Z,2.28
2018-11-28T05:54:54.400Z,2.19
2018-11-28T05:57:23.987Z,2.14
2018-11-28T05:59:54.424Z,2.10
2018-11-28T06:02:24.039Z,2.01
2018-11-28T06:04:54.209Z,2.03
2018-11-28T06:07:24.129Z,2.03
2018-11-28T06:09:53.777Z,2.01
2018-11-28T06:12:23.929Z,2.00
2018-11-28T06:14:54.075Z,2.05
2018-11-28T06:17:24.571Z,2.08
2018-11-28T06:19:54.569Z,2.09
2018-11-28T06:22:24.820Z,2.10
2018-11-28T06:24:54.730Z,2.04
2018-11-28T06:27:24.849Z,2.06
2018-11-28T06:29:54.485Z,2.07
2018-11-28T06:32:24.448Z,2.05
2018-11-28T06:34:54.336Z,2.06
2018-11-28T06:37:23.961Z,2.08
2018-11-28T06:39:53.849Z,2.09
2018-11-28T06:42:23.717Z,2.05
2018-11-28T06:44:53.944Z,2.08
2018-11-28T06:47:23.875Z,2.07
2018-11-28T06:49:53.998Z,2.10
2018-11-28T06:52:24.139Z,2.11
2018-11-28T06:54:54.034Z,2.14
2018-11-28T06:57:24.167Z,2.15
2018-11-28T06:59:54.592Z,2.13
2018-11-28T07:02:24.724Z,2.12
2018-11-28T07:04:55.282Z,2.14
2018-11-28T07:10:02.132Z,2.17
2018-11-28T07:12:51.953Z,2.17
2018-11-28T07:15:41.079Z,2.22
2018-11-28T07:18:48.473Z,2.25
2018-11-28T07:21:18.975Z,2.27
2018-11-28T07:23:49.119Z,2.31
2018-11-28T07:26:19.055Z,2.34
2018-11-28T07:28:49.265Z,2.52
2018-11-28T07:31:19.274Z,2.68
2018-11-28T07:33:49.834Z,2.67
2018-11-28T07:36:39.391Z,2.64
2018-11-28T07:39:09.716Z,2.62
2018-11-28T07:41:39.935Z,2.64
2018-11-28T07:44:10.106Z,2.79
2018-11-28T07:46:40.687Z,2.80
2018-11-28T07:49:10.294Z,2.90
2018-11-28T07:51:40.355Z,3.03
2018-11-28T07:54:29.660Z,3.15
2018-11-28T07:56:59.320Z,3.08
2018-11-28T07:59:29.818Z,3.16
2018-11-28T08:01:59.838Z,3.22
2018-11-28T08:04:29.534Z,3.32
2018-11-28T08:06:59.463Z,3.21
2018-11-28T08:09:29.091Z,3.10
2018-11-28T08:11:59.382Z,3.16
2018-11-28T08:14:29.308Z,3.24
2018-11-28T08:16:59.636Z,3.14
2018-11-28T08:19:30.069Z,3.28
2018-11-28T08:21:59.983Z,3.10
2018-11-28T08:24:30.167Z,3.18
2018-11-28T08:26:59.775Z,3.33
2018-11-28T08:29:29.396Z,3.44
2018-11-28T08:31:59.003Z,3.62
2018-11-28T08:34:28.976Z,3.74
2018-11-28T08:36:58.949Z,3.80
2018-11-28T08:39:28.850Z,3.80
2018-11-28T08:41:58.814Z,3.96
2018-11-28T08:44:29.072Z,3.83
2018-11-28T08:46:59.949Z,4.04
2018-11-28T08:49:30.774Z,4.00
2018-11-28T08:52:00.406Z,4.09
2018-11-28T08:54:30.382Z,4.10
2018-11-28T08:57:00.655Z,3.94
2018-11-28T08:59:30.667Z,4.13
2018-11-28T09:02:00.564Z,4.27
2018-11-28T09:04:30.160Z,4.46
2018-11-28T09:06:59.796Z,4.66
2018-11-28T09:09:49.822Z,4.59
2018-11-28T09:12:19.572Z,4.56
2018-11-28T09:14:49.465Z,4.27
2018-11-28T09:17:19.812Z,4.38
2018-11-28T09:19:49.430Z,4.39
2018-11-28T09:22:38.887Z,4.37
2018-11-28T09:25:12.795Z,4.63
2018-11-28T09:27:43.822Z,4.86
2018-11-28T09:30:32.981Z,4.98
2018-11-28T09:33:02.606Z,4.84
2018-11-28T09:35:33.035Z,4.79
2018-11-28T09:38:02.950Z,4.69
2018-11-28T09:40:32.868Z,4.71
2018-11-28T09:43:02.791Z,4.72
2018-11-28T09:45:32.695Z,4.65
2018-11-28T09:48:02.638Z,4.89
2018-11-28T09:50:32.218Z,5.07
2018-11-28T09:53:02.753Z,5.09
2018-11-28T09:55:32.663Z,5.33
2018-11-28T09:58:03.342Z,5.36
2018-11-28T10:00:32.972Z,5.38
2018-11-28T10:03:02.971Z,5.17
2018-11-28T10:05:36.414Z,5.23
2018-11-28T10:08:06.333Z,5.20
2018-11-28T10:10:35.992Z,5.36
2018-11-28T10:13:06.007Z,5.48
2018-11-28T10:15:36.367Z,5.48
2018-11-28T10:18:06.402Z,5.58
2018-11-28T10:20:36.529Z,5.56
2018-11-28T10:23:06.846Z,5.61
2018-11-28T10:25:37.067Z,5.72
2018-11-28T10:28:09.131Z,5.53
2018-11-28T10:30:58.194Z,5.67
2018-11-28T10:33:28.406Z,5.56
2018-11-28T10:35:58.553Z,5.66
2018-11-28T10:38:28.509Z,5.82
2018-11-28T10:40:58.454Z,5.56
2018-11-28T10:43:28.510Z,5.60
2018-11-28T10:45:58.705Z,5.71
2018-11-28T10:48:28.882Z,5.61
2018-11-28T10:50:59.379Z,5.45
2018-11-28T10:53:29.579Z,5.30
2018-11-28T10:55:59.499Z,5.52
2018-11-28T10:58:29.386Z,5.62
2018-11-28T11:01:17.928Z,5.83
2018-11-28T11:04:06.457Z,5.69
2018-11-28T11:06:55.001Z,5.80
2018-11-28T11:09:43.973Z,5.80
2018-11-28T11:12:32.839Z,5.88
2018-11-28T11:15:02.699Z,6.08
2018-11-28T11:17:32.318Z,6.17
2018-11-28T11:20:02.427Z,6.25
2018-11-28T11:22:32.752Z,6.50
2018-11-28T11:25:02.669Z,6.29
2018-11-28T11:27:32.671Z,6.33
2018-11-28T11:30:02.377Z,6.15
2018-11-28T11:32:32.345Z,6.45
2018-11-28T11:35:02.592Z,6.37
2018-11-28T11:37:32.550Z,6.37
2018-11-28T11:40:02.558Z,6.28
2018-11-28T11:42:32.781Z,6.41
2018-11-28T11:45:03.105Z,6.27
2018-11-28T11:47:33.059Z,6.32
2018-11-28T11:50:03.352Z,6.30
2018-11-28T11:52:33.355Z,6.67
2018-11-28T11:55:03.322Z,6.73
2018-11-28T11:57:33.301Z,6.86
2018-11-28T12:00:03.319Z,6.93
2018-11-28T12:05:22.882Z,6.78
2018-11-28T12:07:53.110Z,6.77
2018-11-28T12:10:23.362Z,6.71
2018-11-28T12:13:12.219Z,6.74
2018-11-28T12:15:42.153Z,6.65
2018-11-28T12:18:12.122Z,6.46
2018-11-28T12:20:54.981Z,6.53
2018-11-28T12:23:24.584Z,6.39
2018-11-28T12:25:55.077Z,6.58
2018-11-28T12:28:25.927Z,6.58
2018-11-28T12:30:55.782Z,6.71
2018-11-28T12:33:25.899Z,6.66
2018-11-28T12:36:14.696Z,6.52
2018-11-28T12:38:44.625Z,6.53
2018-11-28T12:41:15.238Z,6.61
2018-11-28T12:47:20.589Z,6.43
2018-11-28T12:49:50.767Z,6.43
2018-11-28T12:52:21.449Z,6.43
2018-11-28T12:54:51.141Z,6.44
2018-11-28T12:57:21.468Z,6.46
2018-11-28T12:59:52.212Z,6.38
2018-11-28T13:02:21.850Z,6.54
2018-11-28T13:04:51.895Z,6.57
2018-11-28T13:07:41.813Z,6.56
2018-11-28T13:10:49.487Z,6.63
2018-11-28T13:13:19.443Z,6.57
2018-11-28T13:15:49.068Z,6.58
2018-11-28T13:18:19.034Z,6.51
2018-11-28T13:20:48.965Z,6.42
2018-11-28T13:23:19.026Z,6.53
2018-11-28T13:25:49.008Z,6.59
2018-11-28T13:28:19.352Z,6.45
2018-11-28T13:30:49.665Z,6.58
2018-11-28T13:33:19.319Z,6.74
2018-11-28T13:35:49.884Z,6.74
2018-11-28T13:40:49.692Z,6.87
2018-11-28T13:43:20.048Z,6.85
2018-11-28T13:45:50.345Z,6.83
2018-11-28T13:48:20.282Z,6.74
2018-11-28T13:50:50.196Z,6.86
2018-11-28T13:53:20.942Z,6.85
2018-11-28T13:58:41.168Z,6.72
2018-11-28T14:01:11.697Z,6.79
2018-11-28T14:03:41.720Z,6.83
2018-11-28T14:06:11.305Z,6.66
2018-11-28T14:08:41.584Z,6.74
2018-11-28T14:11:12.125Z,6.89
2018-11-28T14:13:42.034Z,6.76
2018-11-28T14:16:11.643Z,6.74
2018-11-28T14:18:41.322Z,6.81
2018-11-28T14:21:10.944Z,6.66
2018-11-28T14:23:41.176Z,6.58
2018-11-28T14:26:11.069Z,6.59
2018-11-28T14:29:00.149Z,6.67
2018-11-28T14:31:30.917Z,6.72
2018-11-28T14:34:00.531Z,6.71
2018-11-28T14:36:30.139Z,6.49
2018-11-28T14:39:01.836Z,6.37
2018-11-28T14:41:33.624Z,6.44
2018-11-28T14:44:03.246Z,6.48
2018-11-28T14:46:33.125Z,6.35
2018-11-28T14:49:03.037Z,6.42
2018-11-28T14:51:32.683Z,6.41
2018-11-28T14:54:03.227Z,6.34
2018-11-28T14:56:33.510Z,6.30
2018-11-28T14:59:03.412Z,6.26
2018-11-28T15:01:33.051Z,6.31
2018-11-28T15:04:02.938Z,6.29
2018-11-28T15:06:35.869Z,6.16
2018-11-28T15:09:43.782Z,6.13
2018-11-28T15:12:14.415Z,6.08
2018-11-28T15:14:44.382Z,6.15
2018-11-28T15:17:13.986Z,6.24
2018-11-28T15:19:44.260Z,6.15
2018-11-28T15:22:14.835Z,6.17
2018-11-28T15:24:44.780Z,6.04
2018-11-28T15:27:14.422Z,6.01
2018-11-28T15:29:44.589Z,5.93
2018-11-28T15:32:14.513Z,6.04
2018-11-28T15:34:44.478Z,5.95
2018-11-28T15:37:14.441Z,5.91
2018-11-28T15:39:44.874Z,5.89
2018-11-28T15:42:14.790Z,5.90
2018-11-28T15:44:44.443Z,5.82
2018-11-28T15:47:14.074Z,5.81
2018-11-28T15:49:44.027Z,5.78
2018-11-28T15:52:14.020Z,5.74
2018-11-28T15:54:43.943Z,5.74
2018-11-28T15:57:14.130Z,5.65
2018-11-28T15:59:44.352Z,5.59
2018-11-28T16:02:13.967Z,5.61
2018-11-28T16:04:44.469Z,5.68
2018-11-28T16:07:14.453Z,5.61
2018-11-28T16:10:01.470Z,5.60
2018-11-28T16:12:31.120Z,5.55
2018-11-28T16:15:01.116Z,5.54
2018-11-28T16:17:31.007Z,5.43
2018-11-28T16:20:00.637Z,5.37
2018-11-28T16:22:30.607Z,5.36
2018-11-28T16:25:00.227Z,5.44
2018-11-28T16:27:30.531Z,5.40
2018-11-28T16:30:00.461Z,5.35
2018-11-28T16:32:30.686Z,5.37
2018-11-28T16:35:03.105Z,5.35
2018-11-28T16:37:33.378Z,5.33
2018-11-28T16:40:03.313Z,5.30
2018-11-28T16:42:33.653Z,5.25
2018-11-28T16:45:03.287Z,5.24
2018-11-28T16:47:33.552Z,5.22
2018-11-28T16:50:03.787Z,5.24
2018-11-28T16:52:34.124Z,5.24
2018-11-28T16:55:04.782Z,5.26
2018-11-28T16:57:34.429Z,5.32
2018-11-28T17:00:05.061Z,5.31
2018-11-28T17:02:35.098Z,5.28
2018-11-28T17:05:05.246Z,5.18
2018-11-28T17:07:35.427Z,5.21
2018-11-28T17:10:05.873Z,5.21
2018-11-28T17:12:36.143Z,5.27
2018-11-28T17:15:06.334Z,5.24
2018-11-28T17:17:37.491Z,5.19
2018-11-28T17:20:10.535Z,5.17
2018-11-28T17:22:40.858Z,5.05
2018-11-28T17:25:18.157Z,4.96
2018-11-28T17:27:48.049Z,4.95
2018-11-28T17:30:19.276Z,4.96
2018-11-28T17:32:48.922Z,5.03
2018-11-28T17:35:19.527Z,4.90
2018-11-28T17:37:49.437Z,4.82
2018-11-28T17:40:20.971Z,4.77
2018-11-28T17:42:52.258Z,4.69
2018-11-28T17:45:22.150Z,4.70
2018-11-28T17:47:51.778Z,4.69
2018-11-28T17:50:25.693Z,4.63
2018-11-28T17:53:15.174Z,4.50
2018-11-28T17:55:52.443Z,4.53
2018-11-28T17:58:22.684Z,4.49
2018-11-28T18:00:52.588Z,4.50
2018-11-28T18:03:22.892Z,4.36
2018-11-28T18:05:52.824Z,4.37
2018-11-28T18:08:23.046Z,4.38
2018-11-28T18:10:52.656Z,4.26
2018-11-28T18:13:22.275Z,4.11
2018-11-28T18:15:53.376Z,4.18
2018-11-28T18:18:24.343Z,4.11
2018-11-28T18:20:54.261Z,3.93
2018-11-28T18:23:24.158Z,3.95
2018-11-28T18:25:54.499Z,3.96
2018-11-28T18:28:24.455Z,3.89
2018-11-28T18:30:54.065Z,3.89
2018-11-28T18:33:23.948Z,3.84
2018-11-28T18:35:53.841Z,3.83
2018-11-28T18:38:23.773Z,3.83
2018-11-28T18:40:53.673Z,3.77
2018-11-28T18:43:23.289Z,3.71
2018-11-28T18:45:54.402Z,3.72
2018-11-28T18:48:25.269Z,3.73
2018-11-28T18:50:55.193Z,3.65
2018-11-28T18:53:24.806Z,3.69
2018-11-28T18:55:55.115Z,3.73
2018-11-28T18:58:25.077Z,3.66
2018-11-28T19:00:54.695Z,3.69
2018-11-28T19:03:24.408Z,3.55
2018-11-28T19:05:54.020Z,3.48
2018-11-28T19:08:23.981Z,3.51
2018-11-28T19:10:53.925Z,3.46
2018-11-28T19:13:23.536Z,3.41
2018-11-28T19:15:53.159Z,3.34
2018-11-28T19:18:22.823Z,3.39
2018-11-28T19:20:52.458Z,3.33
2018-11-28T19:23:22.472Z,3.42
2018-11-28T19:25:52.215Z,3.30
2018-11-28T19:28:22.965Z,3.42
2018-11-28T19:30:52.659Z,3.45
2018-11-28T19:33:23.021Z,3.45
2018-11-28T19:35:53.543Z,3.48
2018-11-28T19:38:23.556Z,3.50
2018-11-28T19:41:05.507Z,3.50
2018-11-28T19:43:36.430Z,3.48
2018-11-28T19:46:06.148Z,3.43
2018-11-28T19:48:36.057Z,3.45
2018-11-28T19:51:05.668Z,3.48
2018-11-28T19:53:35.668Z,3.48
2018-11-28T19:56:05.562Z,3.47
2018-11-28T19:58:35.911Z,3.58
2018-11-28T20:01:06.211Z,3.61
2018-11-28T20:03:36.219Z,3.69
2018-11-28T20:06:06.138Z,3.73
2018-11-28T20:08:36.490Z,3.64
2018-11-28T20:11:06.287Z,3.79
2018-11-28T20:13:36.501Z,3.84
2018-11-28T20:16:06.844Z,3.77
2018-11-28T20:18:36.876Z,3.84
2018-11-28T20:21:06.882Z,3.77
2018-11-28T20:23:37.293Z,3.75
2018-11-28T20:26:06.995Z,3.78
2018-11-28T20:28:36.763Z,3.68
2018-11-28T20:31:06.678Z,3.80
2018-11-28T20:33:37.437Z,3.70
2018-11-28T20:36:07.454Z,3.67
2018-11-28T20:38:37.648Z,3.82
2018-11-28T20:41:07.924Z,3.82
2018-11-28T20:43:37.655Z,3.85
2018-11-28T20:46:08.169Z,3.81
2018-11-28T20:48:38.508Z,3.85
2018-11-28T20:51:08.525Z,3.97
2018-11-28T20:53:38.515Z,3.88
2018-11-28T20:56:08.851Z,3.86
2018-11-28T20:58:39.704Z,3.69
2018-11-28T21:01:09.825Z,3.79
2018-11-28T21:03:39.795Z,3.87
2018-11-28T21:06:09.510Z,3.84
2018-11-28T21:08:39.864Z,3.77
2018-11-28T21:11:09.527Z,3.81
2018-11-28T21:13:40.518Z,3.85
2018-11-28T21:16:10.460Z,3.91
2018-11-28T21:18:40.980Z,3.89
2018-11-28T21:21:11.023Z,3.85
2018-11-28T21:23:40.679Z,3.88
2018-11-28T21:26:11.182Z,3.84
2018-11-28T21:28:41.184Z,3.73
2018-11-28T21:31:11.521Z,3.85
2018-11-28T21:33:41.804Z,3.82
2018-11-28T21:36:12.117Z,3.77
2018-11-28T21:38:42.459Z,3.71
2018-11-28T21:41:12.663Z,3.84
2018-11-28T21:43:42.644Z,3.74
2018-11-28T21:46:12.264Z,3.82
2018-11-28T21:48:41.926Z,3.82
2018-11-28T21:51:11.912Z,3.83
2018-11-28T21:53:41.569Z,3.86
2018-11-28T21:56:11.843Z,3.82
2018-11-28T21:58:41.776Z,3.80
2018-11-28T22:01:11.399Z,3.79
2018-11-28T22:03:41.304Z,3.80
2018-11-28T22:06:10.927Z,3.80
2018-11-28T22:08:40.572Z,3.79
2018-11-28T22:11:29.208Z,3.72
2018-11-28T22:13:59.811Z,3.78
2018-11-28T22:16:29.595Z,3.83
2018-11-28T22:18:59.759Z,3.84
2018-11-28T22:21:30.047Z,3.83
2018-11-28T22:23:59.665Z,3.82
2018-11-28T22:26:29.571Z,3.82
2018-11-28T22:28:59.471Z,3.93
2018-11-28T22:31:29.695Z,3.93
2018-11-28T22:33:59.953Z,3.90
2018-11-28T22:36:29.830Z,3.98
2018-11-28T22:38:59.759Z,3.88
2018-11-28T22:41:30.041Z,3.98
2018-11-28T22:44:00.714Z,4.02
2018-11-28T22:46:31.784Z,4.02
2018-11-28T22:49:01.782Z,4.09
2018-11-28T22:51:31.391Z,4.03
2018-11-28T22:54:01.386Z,3.98
2018-11-28T22:56:31.626Z,3.90
2018-11-28T22:59:02.055Z,4.05
2018-11-28T23:02:18.567Z,4.04
2018-11-28T23:04:48.476Z,4.02
2018-11-28T23:07:18.792Z,4.05
2018-11-28T23:09:49.323Z,4.03
2018-11-28T23:12:19.249Z,3.93
2018-11-28T23:14:49.966Z,3.93
2018-11-28T23:17:20.702Z,4.03
2018-11-28T23:19:50.732Z,4.01
2018-11-28T23:22:20.592Z,3.98
2018-11-28T23:24:50.478Z,3.95
2018-11-28T23:27:20.774Z,3.95
2018-11-28T23:29:51.298Z,4.01
2018-11-28T23:32:21.554Z,3.99
2018-11-28T23:34:51.439Z,3.98
2018-11-28T23:37:21.968Z,3.96
2018-11-28T23:39:51.865Z,3.95
2018-11-28T23:42:22.151Z,4.00
2018-11-28T23:44:52.134Z,4.04
2018-11-28T23:47:22.351Z,4.10
2018-11-28T23:49:52.249Z,4.08
2018-11-28T23:52:22.160Z,4.08
2018-11-28T23:54:52.042Z,4.09
2018-11-28T23:57:21.912Z,4.12
2018-11-28T23:59:52.072Z,4.15
